createdAt,value
2024-05-09T00:00:29.914Z,91.2984
2024-05-09T00:01:23.495Z,91.2763
2024-05-09T00:02:25.312Z,91.1236
2024-05-09T00:03:27.051Z,90.8164
2024-05-09T00:04:28.728Z,90.8523
2024-05-09T00:05:30.608Z,90.9053
2024-05-09T00:06:32.320Z,91.2587
2024-05-09T00:07:34.060Z,91.3978
2024-05-09T00:08:35.879Z,91.4835
2024-05-09T00:09:37.882Z,91.4640
2024-05-09T00:10:40.657Z,91.4873
2024-05-09T00:11:40.678Z,91.7117
2024-05-09T00:12:42.439Z,91.6028
2024-05-09T00:13:44.338Z,91.6148
2024-05-09T00:14:45.960Z,91.6378
2024-05-09T00:15:47.589Z,91.7226
2024-05-09T00:16:49.312Z,91.5806
2024-05-09T00:17:51.634Z,91.4041
2024-05-09T00:18:54.297Z,91.3408
2024-05-09T00:19:56.166Z,91.3831
2024-05-09T00:20:57.942Z,91.1662
2024-05-09T00:21:59.640Z,91.1076
2024-05-09T00:23:01.458Z,91.2426
2024-05-09T00:24:03.233Z,91.2272
2024-05-09T00:25:04.871Z,91.2026
2024-05-09T00:26:06.634Z,91.2297
2024-05-09T00:27:08.945Z,91.3286
2024-05-09T00:28:09.131Z,91.4402
2024-05-09T00:29:10.778Z,91.5570
2024-05-09T00:30:17.824Z,91.5760
2024-05-09T00:31:14.527Z,91.7343
2024-05-09T00:32:16.362Z,91.6760
2024-05-09T00:33:18.377Z,91.8405
2024-05-09T00:34:20.327Z,91.9210
2024-05-09T00:35:22.266Z,92.1103
2024-05-09T00:36:24.240Z,91.9943
2024-05-09T00:37:26.051Z,92.0455
2024-05-09T00:38:27.868Z,92.1010
2024-05-09T00:39:29.614Z,92.2502
2024-05-09T00:40:38.586Z,92.3530
2024-05-09T00:41:33.413Z,92.4487
2024-05-09T00:42:35.178Z,92.4054
2024-05-09T00:43:36.948Z,92.4715
2024-05-09T00:44:38.662Z,92.5701
2024-05-09T00:45:40.423Z,92.5719
2024-05-09T00:46:42.141Z,92.4363
2024-05-09T00:47:44.441Z,92.3568
2024-05-09T00:48:46.464Z,92.0750
2024-05-09T00:49:48.497Z,92.0220
2024-05-09T00:50:50.305Z,91.9419
2024-05-09T00:51:52.211Z,91.9967
2024-05-09T00:52:53.846Z,91.8880
2024-05-09T00:53:55.938Z,91.8781
2024-05-09T00:54:57.638Z,91.9397
2024-05-09T00:55:59.404Z,91.7934
2024-05-09T00:57:01.057Z,91.6387
2024-05-09T00:58:02.881Z,91.5937
2024-05-09T00:59:04.672Z,91.6994
2024-05-09T01:00:12.079Z,91.3774
2024-05-09T01:01:08.561Z,91.0743
2024-05-09T01:02:10.440Z,91.1913
2024-05-09T01:03:13.904Z,91.3038
2024-05-09T01:04:13.581Z,91.2766
2024-05-09T01:05:15.394Z,90.9981
2024-05-09T01:06:17.269Z,91.1152
2024-05-09T01:07:19.051Z,91.2105
2024-05-09T01:08:21.045Z,91.1238
2024-05-09T01:09:22.911Z,90.9966
2024-05-09T01:10:32.210Z,90.9409
2024-05-09T01:11:26.917Z,90.8123
2024-05-09T01:12:28.846Z,90.8454
2024-05-09T01:13:30.538Z,90.8787
2024-05-09T01:14:32.444Z,90.7233
2024-05-09T01:15:34.215Z,90.5171
2024-05-09T01:16:36.162Z,90.5857
2024-05-09T01:17:38.082Z,90.7238
2024-05-09T01:18:40.032Z,90.6851
2024-05-09T01:19:41.941Z,90.5734
2024-05-09T01:20:45.313Z,90.7607
2024-05-09T01:21:44.676Z,90.6233
2024-05-09T01:22:46.423Z,90.7364
2024-05-09T01:23:48.115Z,90.9022
2024-05-09T01:24:49.977Z,90.8349
2024-05-09T01:25:51.679Z,90.6920
2024-05-09T01:26:53.472Z,90.4664
2024-05-09T01:27:55.223Z,90.6058
2024-05-09T01:28:56.972Z,90.4232
2024-05-09T01:29:58.748Z,90.4952
2024-05-09T01:31:00.464Z,90.4021
2024-05-09T01:32:02.320Z,90.6011
2024-05-09T01:33:04.957Z,90.6424
2024-05-09T01:34:04.937Z,90.5801
2024-05-09T01:35:06.653Z,90.6685
2024-05-09T01:36:08.594Z,90.7314
2024-05-09T01:37:10.363Z,90.5826
2024-05-09T01:38:12.312Z,90.7656
2024-05-09T01:39:14.209Z,90.6795
2024-05-09T01:40:21.961Z,90.6148
2024-05-09T01:41:18.078Z,90.7034
2024-05-09T01:42:19.782Z,90.7719
2024-05-09T01:43:21.590Z,90.5257
2024-05-09T01:44:23.412Z,90.6849
2024-05-09T01:45:25.116Z,90.5880
2024-05-09T01:46:26.846Z,90.4687
2024-05-09T01:47:28.632Z,90.3427
2024-05-09T01:48:30.463Z,90.3516
2024-05-09T01:49:32.277Z,90.3710
2024-05-09T01:50:39.108Z,90.6734
2024-05-09T01:51:36.288Z,90.6686
2024-05-09T01:52:38.030Z,90.3691
2024-05-09T01:53:39.856Z,90.2726
2024-05-09T01:54:41.617Z,90.4049
2024-05-09T01:55:43.591Z,90.3949
2024-05-09T01:56:45.406Z,90.2133
2024-05-09T01:57:47.157Z,90.2189
2024-05-09T01:58:48.926Z,90.2400
2024-05-09T01:59:50.692Z,90.2818
2024-05-09T02:00:52.616Z,90.4463
2024-05-09T02:01:57.004Z,90.4955
2024-05-09T02:02:56.921Z,90.4710
2024-05-09T02:03:59.065Z,90.3749
2024-05-09T02:05:01.239Z,90.2317
2024-05-09T02:06:03.162Z,90.4336
2024-05-09T02:07:04.930Z,90.6575
2024-05-09T02:08:06.717Z,90.5697
2024-05-09T02:09:08.370Z,90.6945
2024-05-09T02:10:16.533Z,90.6188
2024-05-09T02:11:12.442Z,90.5003
2024-05-09T02:12:14.608Z,90.2177
2024-05-09T02:13:16.729Z,90.3297
2024-05-09T02:14:18.552Z,90.3711
2024-05-09T02:15:20.287Z,90.4501
2024-05-09T02:16:22.044Z,90.4707
2024-05-09T02:17:23.908Z,90.4484
2024-05-09T02:18:25.807Z,90.3204
2024-05-09T02:19:27.710Z,90.3012
2024-05-09T02:20:34.185Z,90.4273
2024-05-09T02:21:31.831Z,90.2615
2024-05-09T02:22:33.569Z,90.3202
2024-05-09T02:23:35.353Z,90.2896
2024-05-09T02:24:37.137Z,90.3785
2024-05-09T02:25:38.891Z,90.5042
2024-05-09T02:26:40.752Z,90.5659
2024-05-09T02:27:42.458Z,90.5845
2024-05-09T02:28:44.161Z,90.7018
2024-05-09T02:29:45.825Z,90.4954
2024-05-09T02:30:47.560Z,90.4789
2024-05-09T02:31:49.542Z,90.6491
2024-05-09T02:32:51.450Z,90.7620
2024-05-09T02:33:53.438Z,90.8637
2024-05-09T02:34:55.393Z,90.8295
2024-05-09T02:35:57.083Z,90.7185
2024-05-09T02:36:58.910Z,90.8705
2024-05-09T02:38:00.953Z,91.0476
2024-05-09T02:39:02.740Z,91.0786
2024-05-09T02:40:05.648Z,90.8931
2024-05-09T02:41:04.770Z,90.8926
2024-05-09T02:42:06.455Z,91.0508
2024-05-09T02:43:09.314Z,91.0774
2024-05-09T02:44:09.750Z,91.1126
2024-05-09T02:45:11.698Z,90.9301
2024-05-09T02:46:13.411Z,91.0144
2024-05-09T02:47:15.248Z,91.1518
2024-05-09T02:48:17.056Z,91.1042
2024-05-09T02:49:19.112Z,91.1159
2024-05-09T02:50:29.712Z,91.1062
2024-05-09T02:51:23.179Z,91.2635
2024-05-09T02:52:24.921Z,91.1908
2024-05-09T02:53:26.819Z,91.0802
2024-05-09T02:54:28.538Z,91.1938
2024-05-09T02:55:30.254Z,91.2042
2024-05-09T02:56:32.005Z,91.2562
2024-05-09T02:57:33.781Z,91.3227
2024-05-09T02:58:35.485Z,91.2963
2024-05-09T02:59:37.326Z,91.3101
2024-05-09T03:00:41.505Z,91.3375
2024-05-09T03:01:39.332Z,91.2567
2024-05-09T03:02:41.117Z,91.3716
2024-05-09T03:03:43.109Z,91.3927
2024-05-09T03:04:45.175Z,91.3907
2024-05-09T03:05:47.147Z,91.3441
2024-05-09T03:06:48.949Z,91.2171
2024-05-09T03:07:50.746Z,91.2601
2024-05-09T03:08:52.511Z,91.2287
2024-05-09T03:09:54.220Z,91.3567
2024-05-09T03:10:56.139Z,91.2521
2024-05-09T03:11:57.951Z,91.5371
2024-05-09T03:12:59.815Z,91.3353
2024-05-09T03:14:01.574Z,91.3241
2024-05-09T03:15:03.324Z,91.3465
2024-05-09T03:16:05.126Z,91.3017
2024-05-09T03:17:07.018Z,91.3486
2024-05-09T03:18:08.885Z,91.3934
2024-05-09T03:19:11.018Z,91.3671
2024-05-09T03:20:20.483Z,91.2850
2024-05-09T03:21:14.974Z,91.2460
2024-05-09T03:22:16.612Z,91.1734
2024-05-09T03:23:18.428Z,91.2241
2024-05-09T03:24:20.137Z,91.1764
2024-05-09T03:25:21.872Z,91.2304
2024-05-09T03:26:23.804Z,91.3818
2024-05-09T03:27:25.580Z,91.4351
2024-05-09T03:28:27.248Z,91.5046
2024-05-09T03:29:29.009Z,91.3934
2024-05-09T03:30:39.419Z,91.3682
2024-05-09T03:31:32.855Z,91.5164
2024-05-09T03:32:34.688Z,91.6491
2024-05-09T03:33:36.860Z,91.6091
2024-05-09T03:34:39.023Z,91.4509
2024-05-09T03:35:40.936Z,91.5294
2024-05-09T03:36:42.727Z,91.4097
2024-05-09T03:37:44.465Z,91.4596
2024-05-09T03:38:46.260Z,91.4629
2024-05-09T03:39:47.927Z,91.4676
2024-05-09T03:40:50.371Z,91.5035
2024-05-09T03:41:50.051Z,91.4829
2024-05-09T03:42:51.818Z,91.5823
2024-05-09T03:43:53.589Z,91.6424
2024-05-09T03:44:55.309Z,91.5532
2024-05-09T03:45:57.044Z,91.2988
2024-05-09T03:46:58.972Z,91.5088
2024-05-09T03:48:00.816Z,91.5521
2024-05-09T03:49:02.787Z,91.5222
2024-05-09T03:50:05.608Z,91.6234
2024-05-09T03:51:05.037Z,91.5290
2024-05-09T03:52:06.782Z,91.5771
2024-05-09T03:53:08.582Z,91.5520
2024-05-09T03:54:10.223Z,91.5995
2024-05-09T03:55:12.042Z,91.6712
2024-05-09T03:56:13.777Z,91.6485
2024-05-09T03:57:15.549Z,91.6092
2024-05-09T03:58:17.261Z,91.6204
2024-05-09T03:59:19.060Z,91.6783
2024-05-09T04:00:30.463Z,91.7342
2024-05-09T04:01:22.876Z,91.7577
2024-05-09T04:02:24.641Z,91.8670
2024-05-09T04:03:26.878Z,91.8561
2024-05-09T04:04:28.902Z,92.0485
2024-05-09T04:05:30.918Z,91.9278
2024-05-09T04:06:32.973Z,91.8605
2024-05-09T04:07:34.698Z,91.8966
2024-05-09T04:08:36.605Z,91.7851
2024-05-09T04:09:38.544Z,91.7492
2024-05-09T04:10:40.317Z,91.7085
2024-05-09T04:11:42.140Z,91.6444
2024-05-09T04:12:43.855Z,91.5401
2024-05-09T04:13:45.636Z,91.3074
2024-05-09T04:14:47.429Z,91.2144
2024-05-09T04:15:49.171Z,91.1512
2024-05-09T04:16:50.935Z,90.9723
2024-05-09T04:17:52.877Z,90.9531
2024-05-09T04:18:54.834Z,90.8284
2024-05-09T04:19:56.574Z,90.8093
2024-05-09T04:20:58.328Z,91.1016
2024-05-09T04:22:00.052Z,91.0648
2024-05-09T04:23:01.811Z,90.8978
2024-05-09T04:24:03.597Z,90.9654
2024-05-09T04:25:05.290Z,90.8997
2024-05-09T04:26:07.068Z,90.9764
2024-05-09T04:27:08.760Z,90.8424
2024-05-09T04:28:10.485Z,90.7120
2024-05-09T04:29:12.443Z,90.8216
2024-05-09T04:30:21.702Z,90.6440
2024-05-09T04:31:16.289Z,90.7627
2024-05-09T04:32:18.037Z,90.8962
2024-05-09T04:33:20.345Z,90.9647
2024-05-09T04:34:22.671Z,90.7609
2024-05-09T04:35:24.767Z,90.7924
2024-05-09T04:36:26.594Z,90.9355
2024-05-09T04:37:28.308Z,90.9135
2024-05-09T04:38:30.028Z,90.7978
2024-05-09T04:39:31.855Z,90.7208
2024-05-09T04:40:36.199Z,90.7020
2024-05-09T04:41:36.356Z,90.7452
2024-05-09T04:42:38.126Z,90.7347
2024-05-09T04:43:39.810Z,90.8331
2024-05-09T04:44:41.657Z,90.9018
2024-05-09T04:45:43.364Z,90.6805
2024-05-09T04:46:45.177Z,90.4120
2024-05-09T04:47:47.067Z,90.1724
2024-05-09T04:48:49.101Z,90.2248
2024-05-09T04:49:51.035Z,90.2457
2024-05-09T04:50:52.840Z,90.1238
2024-05-09T04:51:54.603Z,90.1609
2024-05-09T04:52:56.387Z,90.3654
2024-05-09T04:53:58.106Z,90.4872
2024-05-09T04:54:59.899Z,90.5158
2024-05-09T04:56:01.672Z,90.5555
2024-05-09T04:57:03.406Z,90.6185
2024-05-09T04:58:05.082Z,90.7469
2024-05-09T04:59:06.972Z,90.4925
2024-05-09T05:00:14.611Z,90.4221
2024-05-09T05:01:10.849Z,90.5196
2024-05-09T05:02:12.821Z,90.4358
2024-05-09T05:03:16.029Z,90.3437
2024-05-09T05:04:15.855Z,90.2561
2024-05-09T05:05:17.902Z,90.4116
2024-05-09T05:06:19.824Z,90.2394
2024-05-09T05:07:21.574Z,90.2477
2024-05-09T05:08:23.417Z,90.3985
2024-05-09T05:09:25.128Z,90.1780
2024-05-09T05:10:33.592Z,90.4927
2024-05-09T05:11:29.145Z,90.4887
2024-05-09T05:12:31.163Z,90.4359
2024-05-09T05:13:33.143Z,90.5737
2024-05-09T05:14:34.954Z,90.5090
2024-05-09T05:15:36.771Z,90.6677
2024-05-09T05:16:38.514Z,90.5862
2024-05-09T05:17:40.555Z,90.3050
2024-05-09T05:18:42.475Z,90.2751
2024-05-09T05:19:44.543Z,90.3263
2024-05-09T05:20:46.531Z,90.2618
2024-05-09T05:21:48.395Z,90.2403
2024-05-09T05:22:50.246Z,90.3285
2024-05-09T05:23:52.049Z,90.3813
2024-05-09T05:24:53.841Z,89.9906
2024-05-09T05:25:55.991Z,90.1844
2024-05-09T05:26:57.937Z,90.3634
2024-05-09T05:27:59.688Z,90.4026
2024-05-09T05:29:01.528Z,90.2253
2024-05-09T05:30:03.576Z,90.2696
2024-05-09T05:31:04.764Z,90.3078
2024-05-09T05:32:06.652Z,90.5060
2024-05-09T05:33:08.585Z,90.5125
2024-05-09T05:34:10.485Z,90.4188
2024-05-09T05:35:12.340Z,90.4069
2024-05-09T05:36:14.099Z,90.5318
2024-05-09T05:37:15.912Z,90.6505
2024-05-09T05:38:17.968Z,90.2491
2024-05-09T05:39:19.894Z,90.3697
2024-05-09T05:40:28.354Z,90.2959
2024-05-09T05:41:23.850Z,90.2079
2024-05-09T05:42:25.603Z,90.2755
2024-05-09T05:43:27.468Z,90.5578
2024-05-09T05:44:29.299Z,90.7076
2024-05-09T05:45:31.118Z,90.4132
2024-05-09T05:46:32.879Z,90.2200
2024-05-09T05:47:34.971Z,90.2955
2024-05-09T05:48:37.145Z,90.1501
2024-05-09T05:49:39.096Z,90.2081
2024-05-09T05:50:41.072Z,90.0649
2024-05-09T05:51:42.840Z,90.0181
2024-05-09T05:52:44.645Z,90.0533
2024-05-09T05:53:46.575Z,89.8380
2024-05-09T05:54:48.363Z,89.7713
2024-05-09T05:55:50.206Z,89.8760
2024-05-09T05:56:52.056Z,89.7980
2024-05-09T05:57:53.853Z,90.0762
2024-05-09T05:58:55.660Z,90.0496
2024-05-09T05:59:57.429Z,89.8560
2024-05-09T06:00:59.230Z,89.8351
2024-05-09T06:02:01.193Z,89.9609
2024-05-09T06:03:03.143Z,89.9596
2024-05-09T06:04:05.076Z,90.0129
2024-05-09T06:05:06.872Z,90.0173
2024-05-09T06:06:08.631Z,89.9331
2024-05-09T06:07:10.417Z,89.8782
2024-05-09T06:08:12.392Z,89.7826
2024-05-09T06:09:14.326Z,89.4308
2024-05-09T06:10:21.466Z,89.0354
2024-05-09T06:11:18.321Z,88.7637
2024-05-09T06:12:20.165Z,88.8844
2024-05-09T06:13:21.995Z,88.9270
2024-05-09T06:14:23.852Z,88.8876
2024-05-09T06:15:25.861Z,88.7338
2024-05-09T06:16:27.614Z,88.6806
2024-05-09T06:17:29.493Z,88.7544
2024-05-09T06:18:31.502Z,88.7887
2024-05-09T06:19:33.702Z,88.5890
2024-05-09T06:20:37.903Z,88.0863
2024-05-09T06:21:37.823Z,87.9406
2024-05-09T06:22:39.603Z,87.8534
2024-05-09T06:23:41.363Z,87.7685
2024-05-09T06:24:43.178Z,87.5080
2024-05-09T06:25:45.099Z,87.4022
2024-05-09T06:26:46.868Z,86.7262
2024-05-09T06:27:48.669Z,86.5474
2024-05-09T06:28:50.523Z,86.3729
2024-05-09T06:29:52.286Z,86.1252
2024-05-09T06:30:54.058Z,85.8509
2024-05-09T06:31:59.523Z,85.7517
2024-05-09T06:32:56.367Z,85.6219
2024-05-09T06:33:58.382Z,84.9669
2024-05-09T06:35:00.296Z,84.2159
2024-05-09T06:36:02.050Z,84.6416
2024-05-09T06:37:03.816Z,84.2581
2024-05-09T06:38:05.696Z,83.7407
2024-05-09T06:39:07.517Z,83.9306
2024-05-09T06:40:10.081Z,83.8589
2024-05-09T06:41:09.317Z,83.5631
2024-05-09T06:42:11.077Z,83.4648
2024-05-09T06:43:12.970Z,84.0609
2024-05-09T06:44:14.793Z,84.0872
2024-05-09T06:45:16.587Z,83.9662
2024-05-09T06:46:18.386Z,84.1931
2024-05-09T06:47:20.358Z,83.6161
2024-05-09T06:48:22.944Z,84.1779
2024-05-09T06:49:22.475Z,84.3547
2024-05-09T06:50:28.146Z,83.1780
2024-05-09T06:51:26.480Z,81.2834
2024-05-09T06:52:28.307Z,81.3915
2024-05-09T06:53:30.105Z,82.3510
2024-05-09T06:54:31.890Z,82.1824
2024-05-09T06:55:33.742Z,82.4246
2024-05-09T06:56:35.575Z,83.1282
2024-05-09T06:57:39.179Z,83.3246
2024-05-09T06:58:37.698Z,83.6715
2024-05-09T06:59:39.484Z,83.7548
2024-05-09T07:00:42.216Z,84.4316
2024-05-09T07:01:41.524Z,83.9671
2024-05-09T07:02:43.365Z,84.6937
2024-05-09T07:03:45.238Z,84.2860
2024-05-09T07:04:47.199Z,84.1493
2024-05-09T07:05:49.865Z,84.2671
2024-05-09T07:06:49.127Z,84.4342
2024-05-09T07:07:50.935Z,84.3408
2024-05-09T07:08:52.863Z,84.5941
2024-05-09T07:09:54.666Z,84.6718
2024-05-09T07:10:56.506Z,84.7646
2024-05-09T07:11:58.370Z,84.5476
2024-05-09T07:13:00.180Z,84.7911
2024-05-09T07:14:02.001Z,84.4349
2024-05-09T07:15:03.814Z,84.0747
2024-05-09T07:16:05.591Z,84.2891
2024-05-09T07:17:07.521Z,84.3938
2024-05-09T07:18:09.524Z,84.3089
2024-05-09T07:19:11.612Z,84.1041
2024-05-09T07:20:23.027Z,84.2371
2024-05-09T07:21:15.776Z,84.1632
2024-05-09T07:22:17.653Z,84.1389
2024-05-09T07:23:19.655Z,84.1592
2024-05-09T07:24:21.725Z,83.6692
2024-05-09T07:25:23.521Z,83.6819
2024-05-09T07:26:25.385Z,83.2882
2024-05-09T07:27:27.207Z,83.3297
2024-05-09T07:28:28.968Z,82.5344
2024-05-09T07:29:30.847Z,82.7522
2024-05-09T07:30:34.399Z,82.5831
2024-05-09T07:31:34.233Z,82.4139
2024-05-09T07:32:36.141Z,82.3954
2024-05-09T07:33:37.957Z,81.4515
2024-05-09T07:34:39.841Z,82.0625
2024-05-09T07:35:41.669Z,82.1284
2024-05-09T07:36:43.393Z,81.9267
2024-05-09T07:37:45.218Z,81.9374
2024-05-09T07:38:46.997Z,82.3684
2024-05-09T07:39:48.795Z,82.6051
2024-05-09T07:40:50.637Z,82.9784
2024-05-09T07:41:52.522Z,83.2052
2024-05-09T07:42:54.290Z,83.3283
2024-05-09T07:43:56.089Z,82.7712
2024-05-09T07:45:14.551Z,83.0105
2024-05-09T07:46:28.567Z,82.2347
2024-05-09T07:53:29.268Z,81.7450
2024-05-09T07:53:37.744Z,82.6574
2024-05-09T07:54:17.031Z,82.0947
2024-05-09T07:55:19.220Z,82.0779
2024-05-09T07:56:22.831Z,81.5312
2024-05-09T07:57:23.109Z,82.1613
2024-05-09T07:58:24.898Z,81.1543
2024-05-09T07:59:26.656Z,81.2895
2024-05-09T08:00:31.516Z,80.8891
2024-05-09T08:01:28.882Z,80.8436
2024-05-09T08:02:30.841Z,80.0103
2024-05-09T08:03:32.976Z,80.0656
2024-05-09T08:04:35.015Z,79.5861
2024-05-09T08:05:37.095Z,79.4310
2024-05-09T08:06:39.097Z,79.2196
2024-05-09T08:07:40.952Z,78.5901
2024-05-09T08:08:42.799Z,77.5107
2024-05-09T08:09:44.665Z,78.0500
2024-05-09T08:10:46.602Z,78.3897
2024-05-09T08:11:48.490Z,78.1050
2024-05-09T08:12:50.487Z,78.5107
2024-05-09T08:13:52.246Z,78.6179
2024-05-09T08:14:54.086Z,77.7069
2024-05-09T08:15:55.945Z,78.7117
2024-05-09T08:16:57.763Z,78.8860
2024-05-09T08:17:59.783Z,79.4677
2024-05-09T08:19:01.731Z,79.0481
2024-05-09T08:20:05.432Z,79.3465
2024-05-09T08:21:04.678Z,79.6702
2024-05-09T08:22:06.794Z,78.7070
2024-05-09T08:23:08.754Z,79.5902
2024-05-09T08:24:10.723Z,79.1284
2024-05-09T08:25:14.161Z,78.7265
2024-05-09T08:26:13.586Z,79.0813
2024-05-09T08:27:15.411Z,79.4702
2024-05-09T08:28:17.388Z,79.4398
2024-05-09T08:29:19.264Z,79.5509
2024-05-09T08:30:25.482Z,79.8196
2024-05-09T08:31:23.554Z,80.1381
2024-05-09T08:32:25.402Z,80.1577
2024-05-09T08:33:27.396Z,80.0620
2024-05-09T08:34:29.480Z,80.4650
2024-05-09T08:35:31.484Z,80.2891
2024-05-09T08:36:33.554Z,80.5542
2024-05-09T08:37:38.783Z,80.4046
2024-05-09T08:38:37.443Z,80.2051
2024-05-09T08:39:39.267Z,80.5119
2024-05-09T08:40:41.259Z,80.1897
2024-05-09T08:41:43.181Z,79.9411
2024-05-09T08:42:45.040Z,80.1441
2024-05-09T08:43:46.910Z,78.7270
2024-05-09T08:44:48.829Z,79.1132
2024-05-09T08:45:50.737Z,78.6990
2024-05-09T08:46:52.533Z,78.2438
2024-05-09T08:47:54.438Z,77.9766
2024-05-09T08:48:56.351Z,77.4058
2024-05-09T08:49:58.280Z,77.2667
2024-05-09T08:51:00.161Z,77.7702
2024-05-09T08:52:02.059Z,77.5577
2024-05-09T08:53:03.888Z,77.8971
2024-05-09T08:54:05.696Z,77.1166
2024-05-09T08:55:07.617Z,78.1005
2024-05-09T08:56:09.440Z,78.4256
2024-05-09T08:57:11.229Z,78.3398
2024-05-09T08:58:13.094Z,78.1478
2024-05-09T08:59:15.114Z,77.8512
2024-05-09T09:00:25.603Z,78.0322
2024-05-09T09:01:19.327Z,78.1526
2024-05-09T09:02:21.492Z,77.6919
2024-05-09T09:03:23.528Z,77.1245
2024-05-09T09:04:25.557Z,77.1724
2024-05-09T09:05:27.792Z,76.3321
2024-05-09T09:06:29.682Z,77.1493
2024-05-09T09:07:31.635Z,76.5416
2024-05-09T09:08:33.548Z,76.7898
2024-05-09T09:09:35.360Z,77.5013
2024-05-09T09:10:37.251Z,77.8725
2024-05-09T09:11:38.998Z,78.7980
2024-05-09T09:12:40.788Z,79.2522
2024-05-09T09:13:42.635Z,78.9441
2024-05-09T09:14:44.476Z,79.0806
2024-05-09T09:15:46.387Z,78.4943
2024-05-09T09:16:48.165Z,78.3906
2024-05-09T09:17:50.067Z,77.7032
2024-05-09T09:18:52.477Z,77.2378
2024-05-09T09:19:54.822Z,77.0364
2024-05-09T09:20:56.802Z,77.3496
2024-05-09T09:21:58.558Z,77.4478
2024-05-09T09:23:00.613Z,77.6897
2024-05-09T09:24:02.456Z,77.4436
2024-05-09T09:25:04.394Z,77.5425
2024-05-09T09:26:06.288Z,77.3303
2024-05-09T09:27:08.051Z,77.4332
2024-05-09T09:28:10.129Z,77.2927
2024-05-09T09:29:12.004Z,77.2572
2024-05-09T09:30:27.680Z,76.7010
2024-05-09T09:31:16.122Z,76.2712
2024-05-09T09:32:18.110Z,75.5080
2024-05-09T09:33:19.994Z,74.9952
2024-05-09T09:34:22.040Z,74.0400
2024-05-09T09:35:23.852Z,74.3766
2024-05-09T09:36:25.809Z,74.5595
2024-05-09T09:37:27.608Z,74.3217
2024-05-09T09:38:29.651Z,73.8530
2024-05-09T09:39:31.520Z,74.1065
2024-05-09T09:40:35.902Z,74.9360
2024-05-09T09:41:35.590Z,74.2814
2024-05-09T09:42:37.439Z,74.4403
2024-05-09T09:43:39.404Z,74.0719
2024-05-09T09:44:42.373Z,74.2911
2024-05-09T09:45:41.326Z,74.2850
2024-05-09T09:46:43.147Z,74.8323
2024-05-09T09:47:45.211Z,74.7392
2024-05-09T09:48:47.332Z,74.1585
2024-05-09T09:49:49.235Z,74.1569
2024-05-09T09:50:51.190Z,74.0089
2024-05-09T09:51:53.137Z,73.5248
2024-05-09T09:52:54.972Z,73.1414
2024-05-09T09:53:56.766Z,73.6491
2024-05-09T09:54:56.918Z,73.1130
2024-05-09T09:55:58.652Z,71.8675
2024-05-09T09:57:00.452Z,71.7949
2024-05-09T09:58:02.461Z,71.3710
2024-05-09T09:59:04.281Z,71.0395
2024-05-09T10:00:09.571Z,71.0056
2024-05-09T10:01:08.829Z,71.8013
2024-05-09T10:02:10.994Z,71.0914
2024-05-09T10:03:13.314Z,70.4749
2024-05-09T10:04:15.309Z,69.4652
2024-05-09T10:05:17.222Z,68.2578
2024-05-09T10:06:19.118Z,68.2986
2024-05-09T10:07:21.187Z,69.0075
2024-05-09T10:08:23.119Z,68.4329
2024-05-09T10:09:25.036Z,67.9029
2024-05-09T10:10:31.728Z,66.9017
2024-05-09T10:11:29.534Z,68.0005
2024-05-09T10:12:31.554Z,68.2110
2024-05-09T10:13:33.450Z,68.9720
2024-05-09T10:14:35.396Z,68.6166
2024-05-09T10:15:37.429Z,69.1654
2024-05-09T10:16:39.234Z,68.7076
2024-05-09T10:17:41.296Z,68.3142
2024-05-09T10:18:43.570Z,69.6768
2024-05-09T10:19:45.798Z,69.8464
2024-05-09T10:20:47.675Z,69.7029
2024-05-09T10:21:49.737Z,69.8397
2024-05-09T10:22:51.740Z,68.9763
2024-05-09T10:23:53.806Z,68.5052
2024-05-09T10:24:55.740Z,68.3694
2024-05-09T10:25:57.584Z,67.7980
2024-05-09T10:26:59.438Z,68.0297
2024-05-09T10:28:01.480Z,67.4120
2024-05-09T10:29:03.584Z,67.3057
2024-05-09T10:30:11.504Z,66.4401
2024-05-09T10:31:07.964Z,66.5091
2024-05-09T10:32:09.958Z,66.3191
2024-05-09T10:33:12.180Z,66.7959
2024-05-09T10:34:14.289Z,66.9429
2024-05-09T10:35:16.284Z,66.4798
2024-05-09T10:36:18.173Z,66.8666
2024-05-09T10:37:20.280Z,68.0425
2024-05-09T10:38:22.124Z,68.5534
2024-05-09T10:39:24.053Z,68.2177
2024-05-09T10:40:31.096Z,68.6408
2024-05-09T10:41:28.396Z,68.8550
2024-05-09T10:42:30.308Z,68.8823
2024-05-09T10:43:32.420Z,69.7099
2024-05-09T10:44:34.424Z,69.2957
2024-05-09T10:45:36.467Z,69.3231
2024-05-09T10:46:38.298Z,70.0535
2024-05-09T10:47:40.324Z,70.3926
2024-05-09T10:48:42.562Z,70.5273
2024-05-09T10:49:44.564Z,70.8540
2024-05-09T10:50:46.399Z,70.2312
2024-05-09T10:51:48.380Z,70.1269
2024-05-09T10:52:50.463Z,69.8638
2024-05-09T10:53:52.298Z,69.7576
2024-05-09T10:54:54.482Z,69.8276
2024-05-09T10:55:56.402Z,69.4727
2024-05-09T10:56:58.199Z,68.8261
2024-05-09T10:58:00.333Z,67.9931
2024-05-09T10:59:02.296Z,67.1636
2024-05-09T11:00:06.307Z,66.0213
2024-05-09T11:01:06.662Z,65.2696
2024-05-09T11:02:06.752Z,66.2449
2024-05-09T11:03:08.797Z,66.5916
2024-05-09T11:04:10.775Z,66.1384
2024-05-09T11:05:12.941Z,66.2614
2024-05-09T11:06:14.905Z,64.7684
2024-05-09T11:07:17.076Z,64.5830
2024-05-09T11:08:18.923Z,63.7453
2024-05-09T11:09:20.867Z,63.7345
2024-05-09T11:10:55.334Z,63.4495
2024-05-09T11:11:57.365Z,63.7177
2024-05-09T11:12:59.445Z,64.1948
2024-05-09T11:14:01.295Z,62.6655
2024-05-09T11:15:03.240Z,63.3289
2024-05-09T11:16:05.361Z,64.0364
2024-05-09T11:17:07.430Z,65.1555
2024-05-09T11:18:09.319Z,65.8608
2024-05-09T11:19:11.276Z,65.2344
2024-05-09T11:20:19.660Z,64.6471
2024-05-09T11:21:15.712Z,64.8415
2024-05-09T11:22:17.769Z,64.0217
2024-05-09T11:23:19.717Z,63.3262
2024-05-09T11:24:21.525Z,63.1434
2024-05-09T11:25:23.489Z,62.5960
2024-05-09T11:26:25.605Z,62.9351
2024-05-09T11:27:27.465Z,62.4764
2024-05-09T11:28:29.273Z,62.2771
2024-05-09T11:29:31.103Z,62.1566
2024-05-09T11:30:32.917Z,62.9298
2024-05-09T11:31:35.019Z,63.4616
2024-05-09T11:32:37.066Z,65.5173
2024-05-09T11:33:39.403Z,64.2200
2024-05-09T11:34:41.547Z,64.3346
2024-05-09T11:35:43.543Z,63.7269
2024-05-09T11:36:45.589Z,63.8554
2024-05-09T11:37:47.414Z,65.0622
2024-05-09T11:38:49.519Z,63.5758
2024-05-09T11:39:51.553Z,64.3600
2024-05-09T11:40:53.428Z,65.0912
2024-05-09T11:41:55.409Z,66.4494
2024-05-09T11:42:57.347Z,65.0583
2024-05-09T11:43:59.197Z,64.4344
2024-05-09T11:45:01.313Z,62.8587
2024-05-09T11:46:03.783Z,63.3647
2024-05-09T11:47:03.573Z,62.3945
2024-05-09T11:48:05.707Z,63.0870
2024-05-09T11:49:07.885Z,63.2285
2024-05-09T11:50:15.999Z,63.4069
2024-05-09T11:51:11.904Z,64.0924
2024-05-09T11:52:13.991Z,64.1595
2024-05-09T11:53:16.054Z,65.0736
2024-05-09T11:54:17.860Z,65.7183
2024-05-09T11:55:19.903Z,66.1609
2024-05-09T11:56:22.010Z,66.5006
2024-05-09T11:57:23.957Z,66.7194
2024-05-09T11:58:25.796Z,67.1353
2024-05-09T11:59:27.618Z,67.6416
2024-05-09T12:00:36.513Z,66.2742
2024-05-09T12:01:32.385Z,66.3338
2024-05-09T12:02:34.414Z,66.3904
2024-05-09T12:03:36.628Z,65.6503
2024-05-09T12:04:38.785Z,65.8894
2024-05-09T12:05:41.065Z,65.0520
2024-05-09T12:06:43.222Z,65.1265
2024-05-09T12:07:45.160Z,65.3717
2024-05-09T12:08:46.956Z,65.5866
2024-05-09T12:09:48.929Z,64.7592
2024-05-09T12:10:50.885Z,63.0112
2024-05-09T12:11:53.131Z,62.5427
2024-05-09T12:12:55.278Z,61.2969
2024-05-09T12:13:57.329Z,61.6348
2024-05-09T12:14:59.291Z,62.4737
2024-05-09T12:16:01.260Z,63.7177
2024-05-09T12:17:03.427Z,63.3464
2024-05-09T12:18:05.505Z,63.5830
2024-05-09T12:19:07.588Z,63.9684
2024-05-09T12:20:17.425Z,63.9954
2024-05-09T12:21:11.776Z,63.9983
2024-05-09T12:22:13.719Z,63.7485
2024-05-09T12:23:15.644Z,64.4164
2024-05-09T12:24:18.531Z,62.0906
2024-05-09T12:25:18.113Z,61.8525
2024-05-09T12:26:20.028Z,61.8845
2024-05-09T12:27:22.167Z,62.7126
2024-05-09T12:28:24.168Z,62.7031
2024-05-09T12:29:26.199Z,62.0087
2024-05-09T12:30:35.771Z,60.7621
2024-05-09T12:31:30.577Z,61.9275
2024-05-09T12:32:32.657Z,62.4925
2024-05-09T12:33:34.729Z,61.9502